sensor_id;sensor_type;location;lat;lon;timestamp;P1;durP1;ratioP1;P2;durP2;ratioP2
61505;SDS011;47366;51.916;4.574;2023-04-24T00:00:19;1.05;;;0.60;;
61505;SDS011;47366;51.916;4.574;2023-04-24T00:02:45;0.43;;;0.25;;
61505;SDS011;47366;51.916;4.574;2023-04-24T00:05:12;0.35;;;0.30;;
61505;SDS011;47366;51.916;4.574;2023-04-24T00:07:38;0.43;;;0.28;;
61505;SDS011;47366;51.916;4.574;2023-04-24T00:10:05;0.55;;;0.20;;
61505;SDS011;47366;51.916;4.574;2023-04-24T00:12:31;1.05;;;0.47;;
61505;SDS011;47366;51.916;4.574;2023-04-24T00:14:56;0.32;;;0.17;;
61505;SDS011;47366;51.916;4.574;2023-04-24T00:17:21;1.67;;;0.55;;
61505;SDS011;47366;51.916;4.574;2023-04-24T00:19:47;0.57;;;0.47;;
61505;SDS011;47366;51.916;4.574;2023-04-24T00:22:13;0.40;;;0.25;;
61505;SDS011;47366;51.916;4.574;2023-04-24T00:24:39;0.65;;;0.50;;
61505;SDS011;47366;51.916;4.574;2023-04-24T00:27:05;0.57;;;0.50;;
61505;SDS011;47366;51.916;4.574;2023-04-24T00:29:30;0.52;;;0.50;;
61505;SDS011;47366;51.916;4.574;2023-04-24T00:31:56;0.38;;;0.38;;
61505;SDS011;47366;51.916;4.574;2023-04-24T00:34:21;0.55;;;0.40;;
61505;SDS011;47366;51.916;4.574;2023-04-24T00:36:47;0.60;;;0.40;;
61505;SDS011;47366;51.916;4.574;2023-04-24T00:39:14;0.65;;;0.20;;
61505;SDS011;47366;51.916;4.574;2023-04-24T00:41:39;0.70;;;0.38;;
61505;SDS011;47366;51.916;4.574;2023-04-24T00:44:05;0.40;;;0.32;;
61505;SDS011;47366;51.916;4.574;2023-04-24T00:46:30;0.38;;;0.32;;
61505;SDS011;47366;51.916;4.574;2023-04-24T00:48:56;0.38;;;0.20;;
61505;SDS011;47366;51.916;4.574;2023-04-24T00:51:24;0.35;;;0.35;;
61505;SDS011;47366;51.916;4.574;2023-04-24T00:53:49;0.17;;;0.17;;
61505;SDS011;47366;51.916;4.574;2023-04-24T00:56:16;1.73;;;0.82;;
61505;SDS011;47366;51.916;4.574;2023-04-24T00:58:42;0.32;;;0.25;;
61505;SDS011;47366;51.916;4.574;2023-04-24T01:01:08;1.88;;;0.75;;
61505;SDS011;47366;51.916;4.574;2023-04-24T01:03:34;0.77;;;0.50;;
61505;SDS011;47366;51.916;4.574;2023-04-24T01:06:02;0.85;;;0.70;;
61505;SDS011;47366;51.916;4.574;2023-04-24T01:08:28;1.50;;;0.82;;
61505;SDS011;47366;51.916;4.574;2023-04-24T01:10:54;0.80;;;0.57;;
61505;SDS011;47366;51.916;4.574;2023-04-24T01:13:21;1.40;;;0.75;;
61505;SDS011;47366;51.916;4.574;2023-04-24T01:15:47;0.80;;;0.70;;
61505;SDS011;47366;51.916;4.574;2023-04-24T01:18:13;1.25;;;0.68;;
61505;SDS011;47366;51.916;4.574;2023-04-24T01:20:40;1.23;;;0.75;;
61505;SDS011;47366;51.916;4.574;2023-04-24T01:23:07;1.15;;;0.93;;
61505;SDS011;47366;51.916;4.574;2023-04-24T01:25:34;1.25;;;0.90;;
61505;SDS011;47366;51.916;4.574;2023-04-24T01:28:00;2.13;;;0.90;;
61505;SDS011;47366;51.916;4.574;2023-04-24T01:30:26;1.30;;;1.00;;
61505;SDS011;47366;51.916;4.574;2023-04-24T01:32:52;2.50;;;1.40;;
61505;SDS011;47366;51.916;4.574;2023-04-24T01:35:18;0.85;;;0.73;;
61505;SDS011;47366;51.916;4.574;2023-04-24T01:37:45;2.13;;;0.80;;
61505;SDS011;47366;51.916;4.574;2023-04-24T01:40:10;0.70;;;0.52;;
61505;SDS011;47366;51.916;4.574;2023-04-24T01:42:36;2.10;;;1.20;;
61505;SDS011;47366;51.916;4.574;2023-04-24T01:45:02;1.25;;;0.85;;
61505;SDS011;47366;51.916;4.574;2023-04-24T01:47:30;1.60;;;0.82;;
61505;SDS011;47366;51.916;4.574;2023-04-24T01:49:56;3.78;;;0.70;;
61505;SDS011;47366;51.916;4.574;2023-04-24T01:52:22;0.70;;;0.70;;
61505;SDS011;47366;51.916;4.574;2023-04-24T01:54:47;1.35;;;0.90;;
61505;SDS011;47366;51.916;4.574;2023-04-24T01:57:13;1.55;;;0.68;;
61505;SDS011;47366;51.916;4.574;2023-04-24T01:59:39;1.02;;;0.55;;
61505;SDS011;47366;51.916;4.574;2023-04-24T02:02:05;1.75;;;0.88;;
61505;SDS011;47366;51.916;4.574;2023-04-24T02:04:30;2.70;;;0.90;;
61505;SDS011;47366;51.916;4.574;2023-04-24T02:06:56;1.38;;;0.85;;
61505;SDS011;47366;51.916;4.574;2023-04-24T02:09:22;3.97;;;1.25;;
61505;SDS011;47366;51.916;4.574;2023-04-24T02:11:47;1.42;;;1.00;;
61505;SDS011;47366;51.916;4.574;2023-04-24T02:14:12;1.30;;;1.15;;
61505;SDS011;47366;51.916;4.574;2023-04-24T02:16:37;1.52;;;1.00;;
61505;SDS011;47366;51.916;4.574;2023-04-24T02:19:03;3.63;;;0.85;;
61505;SDS011;47366;51.916;4.574;2023-04-24T02:21:29;1.00;;;0.90;;
61505;SDS011;47366;51.916;4.574;2023-04-24T02:23:55;0.98;;;0.80;;
61505;SDS011;47366;51.916;4.574;2023-04-24T02:26:21;0.73;;;0.60;;
61505;SDS011;47366;51.916;4.574;2023-04-24T02:28:46;4.20;;;1.50;;
61505;SDS011;47366;51.916;4.574;2023-04-24T02:31:11;1.80;;;1.25;;
61505;SDS011;47366;51.916;4.574;2023-04-24T02:33:37;1.45;;;1.08;;
61505;SDS011;47366;51.916;4.574;2023-04-24T02:36:02;1.17;;;0.80;;
61505;SDS011;47366;51.916;4.574;2023-04-24T02:38:28;1.85;;;1.10;;
61505;SDS011;47366;51.916;4.574;2023-04-24T02:40:54;1.80;;;0.70;;
61505;SDS011;47366;51.916;4.574;2023-04-24T02:43:19;0.60;;;0.40;;
61505;SDS011;47366;51.916;4.574;2023-04-24T02:45:45;0.57;;;0.35;;
61505;SDS011;47366;51.916;4.574;2023-04-24T02:48:10;0.60;;;0.40;;
61505;SDS011;47366;51.916;4.574;2023-04-24T02:50:36;0.40;;;0.38;;
61505;SDS011;47366;51.916;4.574;2023-04-24T02:53:01;0.30;;;0.30;;
61505;SDS011;47366;51.916;4.574;2023-04-24T02:55:27;0.32;;;0.28;;
61505;SDS011;47366;51.916;4.574;2023-04-24T02:57:52;0.38;;;0.38;;
61505;SDS011;47366;51.916;4.574;2023-04-24T03:00:17;0.57;;;0.50;;
61505;SDS011;47366;51.916;4.574;2023-04-24T03:02:43;0.30;;;0.30;;
61505;SDS011;47366;51.916;4.574;2023-04-24T03:05:08;0.28;;;0.28;;
61505;SDS011;47366;51.916;4.574;2023-04-24T03:07:34;0.50;;;0.40;;
61505;SDS011;47366;51.916;4.574;2023-04-24T03:10:00;0.52;;;0.40;;
61505;SDS011;47366;51.916;4.574;2023-04-24T03:12:25;0.63;;;0.43;;
61505;SDS011;47366;51.916;4.574;2023-04-24T03:14:51;0.30;;;0.30;;
61505;SDS011;47366;51.916;4.574;2023-04-24T03:17:16;0.60;;;0.47;;
61505;SDS011;47366;51.916;4.574;2023-04-24T03:19:42;0.40;;;0.40;;
61505;SDS011;47366;51.916;4.574;2023-04-24T03:22:07;0.35;;;0.28;;
61505;SDS011;47366;51.916;4.574;2023-04-24T03:24:34;0.32;;;0.30;;
61505;SDS011;47366;51.916;4.574;2023-04-24T03:26:59;0.52;;;0.40;;
61505;SDS011;47366;51.916;4.574;2023-04-24T03:29:25;0.35;;;0.30;;
61505;SDS011;47366;51.916;4.574;2023-04-24T03:31:50;0.05;;;0.05;;
61505;SDS011;47366;51.916;4.574;2023-04-24T03:34:16;0.22;;;0.22;;
61505;SDS011;47366;51.916;4.574;2023-04-24T03:36:41;0.45;;;0.30;;
61505;SDS011;47366;51.916;4.574;2023-04-24T03:39:07;0.30;;;0.30;;
61505;SDS011;47366;51.916;4.574;2023-04-24T03:41:32;0.30;;;0.25;;
61505;SDS011;47366;51.916;4.574;2023-04-24T03:43:58;0.10;;;0.10;;
61505;SDS011;47366;51.916;4.574;2023-04-24T03:46:23;0.32;;;0.30;;
61505;SDS011;47366;51.916;4.574;2023-04-24T03:48:49;0.00;;;0.00;;
61505;SDS011;47366;51.916;4.574;2023-04-24T03:51:14;2.70;;;0.35;;
61505;SDS011;47366;51.916;4.574;2023-04-24T03:53:39;0.80;;;0.20;;
61505;SDS011;47366;51.916;4.574;2023-04-24T03:56:05;0.32;;;0.22;;
61505;SDS011;47366;51.916;4.574;2023-04-24T03:58:30;0.73;;;0.30;;
61505;SDS011;47366;51.916;4.574;2023-04-24T04:00:55;0.17;;;0.15;;
61505;SDS011;47366;51.916;4.574;2023-04-24T04:03:22;0.47;;;0.17;;
61505;SDS011;47366;51.916;4.574;2023-04-24T04:05:48;0.50;;;0.25;;
61505;SDS011;47366;51.916;4.574;2023-04-24T04:08:13;0.45;;;0.20;;
61505;SDS011;47366;51.916;4.574;2023-04-24T04:10:39;0.10;;;0.10;;
61505;SDS011;47366;51.916;4.574;2023-04-24T04:13:04;0.68;;;0.32;;
61505;SDS011;47366;51.916;4.574;2023-04-24T04:15:31;0.35;;;0.10;;
61505;SDS011;47366;51.916;4.574;2023-04-24T04:17:56;0.10;;;0.10;;
61505;SDS011;47366;51.916;4.574;2023-04-24T04:20:22;0.65;;;0.40;;
61505;SDS011;47366;51.916;4.574;2023-04-24T04:22:47;0.08;;;0.08;;
61505;SDS011;47366;51.916;4.574;2023-04-24T04:25:12;1.17;;;0.30;;
61505;SDS011;47366;51.916;4.574;2023-04-24T04:27:38;0.57;;;0.40;;
61505;SDS011;47366;51.916;4.574;2023-04-24T04:30:04;0.13;;;0.13;;
61505;SDS011;47366;51.916;4.574;2023-04-24T04:32:31;0.63;;;0.38;;
61505;SDS011;47366;51.916;4.574;2023-04-24T04:34:58;0.45;;;0.38;;
61505;SDS011;47366;51.916;4.574;2023-04-24T04:37:28;0.77;;;0.43;;
61505;SDS011;47366;51.916;4.574;2023-04-24T04:39:54;0.10;;;0.10;;
61505;SDS011;47366;51.916;4.574;2023-04-24T04:42:19;0.25;;;0.20;;
61505;SDS011;47366;51.916;4.574;2023-04-24T04:44:45;0.17;;;0.15;;
61505;SDS011;47366;51.916;4.574;2023-04-24T04:47:10;0.38;;;0.30;;
61505;SDS011;47366;51.916;4.574;2023-04-24T04:49:36;0.10;;;0.10;;
61505;SDS011;47366;51.916;4.574;2023-04-24T04:52:03;0.68;;;0.28;;
61505;SDS011;47366;51.916;4.574;2023-04-24T04:54:28;0.17;;;0.17;;
61505;SDS011;47366;51.916;4.574;2023-04-24T04:56:54;0.40;;;0.38;;
61505;SDS011;47366;51.916;4.574;2023-04-24T04:59:19;1.05;;;0.57;;
61505;SDS011;47366;51.916;4.574;2023-04-24T05:01:45;2.83;;;0.40;;
61505;SDS011;47366;51.916;4.574;2023-04-24T05:04:10;1.42;;;0.60;;
61505;SDS011;47366;51.916;4.574;2023-04-24T05:06:35;0.75;;;0.28;;
61505;SDS011;47366;51.916;4.574;2023-04-24T05:09:01;3.50;;;0.73;;
61505;SDS011;47366;51.916;4.574;2023-04-24T05:11:28;0.65;;;0.50;;
61505;SDS011;47366;51.916;4.574;2023-04-24T05:13:53;1.40;;;0.82;;
61505;SDS011;47366;51.916;4.574;2023-04-24T05:16:19;3.50;;;1.05;;
61505;SDS011;47366;51.916;4.574;2023-04-24T05:18:44;4.05;;;1.65;;
61505;SDS011;47366;51.916;4.574;2023-04-24T05:21:10;2.33;;;1.58;;
61505;SDS011;47366;51.916;4.574;2023-04-24T05:23:35;1.50;;;1.17;;
61505;SDS011;47366;51.916;4.574;2023-04-24T05:26:00;2.85;;;1.60;;
61505;SDS011;47366;51.916;4.574;2023-04-24T05:28:26;5.03;;;1.92;;
61505;SDS011;47366;51.916;4.574;2023-04-24T05:30:53;3.33;;;1.20;;
61505;SDS011;47366;51.916;4.574;2023-04-24T05:33:20;4.68;;;1.50;;
61505;SDS011;47366;51.916;4.574;2023-04-24T05:35:47;5.45;;;1.52;;
61505;SDS011;47366;51.916;4.574;2023-04-24T05:38:12;2.28;;;1.67;;
61505;SDS011;47366;51.916;4.574;2023-04-24T05:40:38;3.42;;;1.63;;
61505;SDS011;47366;51.916;4.574;2023-04-24T05:43:04;5.50;;;1.58;;
61505;SDS011;47366;51.916;4.574;2023-04-24T05:45:29;1.88;;;1.23;;
61505;SDS011;47366;51.916;4.574;2023-04-24T05:47:55;5.95;;;1.80;;
61505;SDS011;47366;51.916;4.574;2023-04-24T05:50:20;1.92;;;1.52;;
61505;SDS011;47366;51.916;4.574;2023-04-24T05:52:45;5.38;;;2.28;;
61505;SDS011;47366;51.916;4.574;2023-04-24T05:55:11;2.97;;;1.67;;
61505;SDS011;47366;51.916;4.574;2023-04-24T05:57:36;1.90;;;0.90;;
61505;SDS011;47366;51.916;4.574;2023-04-24T06:00:02;3.28;;;1.98;;
61505;SDS011;47366;51.916;4.574;2023-04-24T06:02:29;3.33;;;1.58;;
61505;SDS011;47366;51.916;4.574;2023-04-24T06:04:57;3.25;;;1.60;;
61505;SDS011;47366;51.916;4.574;2023-04-24T06:07:24;1.63;;;1.33;;
61505;SDS011;47366;51.916;4.574;2023-04-24T06:09:51;3.60;;;1.30;;
61505;SDS011;47366;51.916;4.574;2023-04-24T06:12:16;2.95;;;1.50;;
61505;SDS011;47366;51.916;4.574;2023-04-24T06:14:41;4.15;;;1.40;;
61505;SDS011;47366;51.916;4.574;2023-04-24T06:17:07;3.60;;;1.60;;
61505;SDS011;47366;51.916;4.574;2023-04-24T06:19:32;4.72;;;1.23;;
61505;SDS011;47366;51.916;4.574;2023-04-24T06:21:57;1.92;;;1.33;;
61505;SDS011;47366;51.916;4.574;2023-04-24T06:24:26;2.97;;;1.17;;
61505;SDS011;47366;51.916;4.574;2023-04-24T06:26:52;3.33;;;1.33;;
61505;SDS011;47366;51.916;4.574;2023-04-24T06:29:18;2.38;;;1.33;;
61505;SDS011;47366;51.916;4.574;2023-04-24T06:31:43;2.85;;;1.27;;
61505;SDS011;47366;51.916;4.574;2023-04-24T06:34:08;1.52;;;0.85;;
61505;SDS011;47366;51.916;4.574;2023-04-24T06:36:33;3.42;;;1.08;;
61505;SDS011;47366;51.916;4.574;2023-04-24T06:39:00;7.70;;;1.13;;
61505;SDS011;47366;51.916;4.574;2023-04-24T06:41:26;3.28;;;1.05;;
61505;SDS011;47366;51.916;4.574;2023-04-24T06:43:51;3.08;;;1.20;;
61505;SDS011;47366;51.916;4.574;2023-04-24T06:46:16;1.63;;;0.88;;
61505;SDS011;47366;51.916;4.574;2023-04-24T06:48:42;2.83;;;1.08;;
61505;SDS011;47366;51.916;4.574;2023-04-24T06:51:07;3.63;;;0.95;;
61505;SDS011;47366;51.916;4.574;2023-04-24T06:53:33;3.15;;;1.05;;
61505;SDS011;47366;51.916;4.574;2023-04-24T06:55:58;1.88;;;0.98;;
61505;SDS011;47366;51.916;4.574;2023-04-24T06:58:24;4.32;;;1.13;;
61505;SDS011;47366;51.916;4.574;2023-04-24T07:00:50;4.40;;;1.20;;
61505;SDS011;47366;51.916;4.574;2023-04-24T07:03:15;2.95;;;1.00;;
61505;SDS011;47366;51.916;4.574;2023-04-24T07:05:41;3.13;;;1.13;;
61505;SDS011;47366;51.916;4.574;2023-04-24T07:08:06;5.93;;;1.55;;
61505;SDS011;47366;51.916;4.574;2023-04-24T07:10:32;1.27;;;0.88;;
61505;SDS011;47366;51.916;4.574;2023-04-24T07:12:59;3.03;;;1.13;;
61505;SDS011;47366;51.916;4.574;2023-04-24T07:15:24;3.10;;;0.93;;
61505;SDS011;47366;51.916;4.574;2023-04-24T07:17:49;1.35;;;0.88;;
61505;SDS011;47366;51.916;4.574;2023-04-24T07:20:15;2.03;;;0.85;;
61505;SDS011;47366;51.916;4.574;2023-04-24T07:22:40;1.70;;;0.45;;
61505;SDS011;47366;51.916;4.574;2023-04-24T07:25:06;0.77;;;0.50;;
61505;SDS011;47366;51.916;4.574;2023-04-24T07:27:32;0.82;;;0.60;;
61505;SDS011;47366;51.916;4.574;2023-04-24T07:29:58;2.95;;;0.85;;
61505;SDS011;47366;51.916;4.574;2023-04-24T07:32:24;1.48;;;0.60;;
61505;SDS011;47366;51.916;4.574;2023-04-24T07:34:49;0.93;;;0.52;;
61505;SDS011;47366;51.916;4.574;2023-04-24T07:37:14;2.92;;;0.70;;
61505;SDS011;47366;51.916;4.574;2023-04-24T07:39:40;3.67;;;0.70;;
61505;SDS011;47366;51.916;4.574;2023-04-24T07:42:05;4.53;;;0.68;;
61505;SDS011;47366;51.916;4.574;2023-04-24T07:44:31;1.20;;;0.52;;
61505;SDS011;47366;51.916;4.574;2023-04-24T07:46:57;0.75;;;0.47;;
61505;SDS011;47366;51.916;4.574;2023-04-24T07:49:22;4.38;;;0.70;;
61505;SDS011;47366;51.916;4.574;2023-04-24T07:51:48;1.33;;;0.60;;
61505;SDS011;47366;51.916;4.574;2023-04-24T07:54:14;3.03;;;0.60;;
61505;SDS011;47366;51.916;4.574;2023-04-24T07:56:40;1.38;;;0.63;;
61505;SDS011;47366;51.916;4.574;2023-04-24T07:59:07;1.77;;;0.70;;
61505;SDS011;47366;51.916;4.574;2023-04-24T08:01:34;0.50;;;0.40;;
61505;SDS011;47366;51.916;4.574;2023-04-24T08:03:59;0.70;;;0.57;;
61505;SDS011;47366;51.916;4.574;2023-04-24T08:06:25;2.85;;;0.47;;
61505;SDS011;47366;51.916;4.574;2023-04-24T08:08:55;0.60;;;0.60;;
61505;SDS011;47366;51.916;4.574;2023-04-24T08:11:20;0.93;;;0.55;;
61505;SDS011;47366;51.916;4.574;2023-04-24T08:13:45;2.28;;;0.70;;
61505;SDS011;47366;51.916;4.574;2023-04-24T08:16:11;2.20;;;0.60;;
61505;SDS011;47366;51.916;4.574;2023-04-24T08:18:36;0.93;;;0.70;;
61505;SDS011;47366;51.916;4.574;2023-04-24T08:21:01;3.25;;;0.77;;
61505;SDS011;47366;51.916;4.574;2023-04-24T08:23:27;0.30;;;0.30;;
61505;SDS011;47366;51.916;4.574;2023-04-24T08:25:54;1.77;;;0.45;;
61505;SDS011;47366;51.916;4.574;2023-04-24T08:28:19;1.42;;;0.77;;
61505;SDS011;47366;51.916;4.574;2023-04-24T08:30:45;4.07;;;0.88;;
61505;SDS011;47366;51.916;4.574;2023-04-24T08:33:12;0.40;;;0.30;;
61505;SDS011;47366;51.916;4.574;2023-04-24T08:35:38;1.10;;;0.75;;
61505;SDS011;47366;51.916;4.574;2023-04-24T08:38:03;2.30;;;0.75;;
61505;SDS011;47366;51.916;4.574;2023-04-24T08:40:29;2.05;;;1.05;;
61505;SDS011;47366;51.916;4.574;2023-04-24T08:42:58;1.08;;;0.20;;
61505;SDS011;47366;51.916;4.574;2023-04-24T08:45:24;0.57;;;0.45;;
61505;SDS011;47366;51.916;4.574;2023-04-24T08:47:50;5.05;;;0.22;;
61505;SDS011;47366;51.916;4.574;2023-04-24T08:50:18;3.08;;;0.80;;
61505;SDS011;47366;51.916;4.574;2023-04-24T08:52:43;1.55;;;0.50;;
61505;SDS011;47366;51.916;4.574;2023-04-24T08:55:09;1.45;;;0.28;;
61505;SDS011;47366;51.916;4.574;2023-04-24T08:57:34;1.67;;;0.30;;
61505;SDS011;47366;51.916;4.574;2023-04-24T09:00:01;0.80;;;0.20;;
61505;SDS011;47366;51.916;4.574;2023-04-24T09:02:26;0.93;;;0.38;;
61505;SDS011;47366;51.916;4.574;2023-04-24T09:04:53;0.40;;;0.20;;
61505;SDS011;47366;51.916;4.574;2023-04-24T09:07:22;0.82;;;0.40;;
61505;SDS011;47366;51.916;4.574;2023-04-24T09:09:50;1.00;;;0.30;;
61505;SDS011;47366;51.916;4.574;2023-04-24T09:12:17;0.60;;;0.28;;
61505;SDS011;47366;51.916;4.574;2023-04-24T09:14:42;0.45;;;0.30;;
61505;SDS011;47366;51.916;4.574;2023-04-24T09:17:10;6.28;;;0.38;;
61505;SDS011;47366;51.916;4.574;2023-04-24T09:19:36;0.38;;;0.20;;
61505;SDS011;47366;51.916;4.574;2023-04-24T09:22:04;0.75;;;0.20;;
61505;SDS011;47366;51.916;4.574;2023-04-24T09:24:31;1.17;;;0.20;;
61505;SDS011;47366;51.916;4.574;2023-04-24T09:26:57;0.40;;;0.25;;
61505;SDS011;47366;51.916;4.574;2023-04-24T09:29:23;2.55;;;0.13;;
61505;SDS011;47366;51.916;4.574;2023-04-24T09:31:49;0.10;;;0.03;;
61505;SDS011;47366;51.916;4.574;2023-04-24T09:34:18;0.47;;;0.22;;
61505;SDS011;47366;51.916;4.574;2023-04-24T09:36:47;0.47;;;0.22;;
61505;SDS011;47366;51.916;4.574;2023-04-24T09:39:13;0.40;;;0.20;;
61505;SDS011;47366;51.916;4.574;2023-04-24T09:41:44;0.30;;;0.10;;
61505;SDS011;47366;51.916;4.574;2023-04-24T09:44:13;0.40;;;0.20;;
61505;SDS011;47366;51.916;4.574;2023-04-24T09:46:44;0.37;;;0.37;;
61505;SDS011;47366;51.916;4.574;2023-04-24T09:49:14;0.03;;;0.03;;
61505;SDS011;47366;51.916;4.574;2023-04-24T09:51:41;0.63;;;0.15;;
61505;SDS011;47366;51.916;4.574;2023-04-24T09:54:18;0.45;;;0.20;;
61505;SDS011;47366;51.916;4.574;2023-04-24T09:56:46;0.00;;;0.00;;
61505;SDS011;47366;51.916;4.574;2023-04-24T09:59:14;0.15;;;0.13;;
61505;SDS011;47366;51.916;4.574;2023-04-24T10:01:40;0.28;;;0.05;;
61505;SDS011;47366;51.916;4.574;2023-04-24T10:06:42;0.75;;;0.22;;
61505;SDS011;47366;51.916;4.574;2023-04-24T10:09:08;0.20;;;0.10;;
61505;SDS011;47366;51.916;4.574;2023-04-24T10:11:35;0.10;;;0.05;;
61505;SDS011;47366;51.916;4.574;2023-04-24T10:14:02;0.30;;;0.20;;
61505;SDS011;47366;51.916;4.574;2023-04-24T10:16:28;0.20;;;0.10;;
61505;SDS011;47366;51.916;4.574;2023-04-24T10:18:56;0.32;;;0.20;;
61505;SDS011;47366;51.916;4.574;2023-04-24T10:21:24;0.52;;;0.28;;
61505;SDS011;47366;51.916;4.574;2023-04-24T10:23:51;1.67;;;0.28;;
61505;SDS011;47366;51.916;4.574;2023-04-24T10:26:18;0.50;;;0.20;;
61505;SDS011;47366;51.916;4.574;2023-04-24T10:28:47;0.15;;;0.15;;
61505;SDS011;47366;51.916;4.574;2023-04-24T10:31:13;0.00;;;0.00;;
61505;SDS011;47366;51.916;4.574;2023-04-24T10:33:42;0.35;;;0.20;;
61505;SDS011;47366;51.916;4.574;2023-04-24T10:36:10;2.72;;;0.38;;
61505;SDS011;47366;51.916;4.574;2023-04-24T10:38:38;2.58;;;0.28;;
61505;SDS011;47366;51.916;4.574;2023-04-24T10:41:10;2.50;;;0.55;;
61505;SDS011;47366;51.916;4.574;2023-04-24T10:43:44;0.30;;;0.10;;
61505;SDS011;47366;51.916;4.574;2023-04-24T10:46:10;1.17;;;0.30;;
61505;SDS011;47366;51.916;4.574;2023-04-24T10:48:35;0.28;;;0.20;;
61505;SDS011;47366;51.916;4.574;2023-04-24T10:51:10;2.30;;;0.50;;
61505;SDS011;47366;51.916;4.574;2023-04-24T10:53:37;0.63;;;0.40;;
61505;SDS011;47366;51.916;4.574;2023-04-24T10:56:06;4.18;;;0.30;;
61505;SDS011;47366;51.916;4.574;2023-04-24T11:01:04;2.28;;;0.55;;
61505;SDS011;47366;51.916;4.574;2023-04-24T11:03:30;0.85;;;0.30;;
61505;SDS011;47366;51.916;4.574;2023-04-24T11:06:01;1.95;;;0.40;;
61505;SDS011;47366;51.916;4.574;2023-04-24T11:08:30;3.17;;;0.20;;
61505;SDS011;47366;51.916;4.574;2023-04-24T11:16:21;2.38;;;0.20;;
61505;SDS011;47366;51.916;4.574;2023-04-24T11:19:27;0.30;;;0.20;;
61505;SDS011;47366;51.916;4.574;2023-04-24T11:21:59;0.55;;;0.10;;
61505;SDS011;47366;51.916;4.574;2023-04-24T11:27:14;0.68;;;0.30;;
61505;SDS011;47366;51.916;4.574;2023-04-24T11:34:51;0.20;;;0.05;;
61505;SDS011;47366;51.916;4.574;2023-04-24T11:37:18;0.30;;;0.17;;
61505;SDS011;47366;51.916;4.574;2023-04-24T11:39:43;0.00;;;0.00;;
61505;SDS011;47366;51.916;4.574;2023-04-24T11:42:09;0.00;;;0.00;;
61505;SDS011;47366;51.916;4.574;2023-04-24T11:44:35;1.40;;;0.35;;
61505;SDS011;47366;51.916;4.574;2023-04-24T11:47:04;0.22;;;0.20;;
61505;SDS011;47366;51.916;4.574;2023-04-24T11:49:30;0.20;;;0.15;;
61505;SDS011;47366;51.916;4.574;2023-04-24T11:51:55;1.65;;;0.45;;
61505;SDS011;47366;51.916;4.574;2023-04-24T11:54:21;1.27;;;0.38;;
61505;SDS011;47366;51.916;4.574;2023-04-24T11:56:47;1.13;;;0.40;;
61505;SDS011;47366;51.916;4.574;2023-04-24T11:59:14;2.05;;;0.35;;
61505;SDS011;47366;51.916;4.574;2023-04-24T12:01:43;0.60;;;0.22;;
61505;SDS011;47366;51.916;4.574;2023-04-24T12:04:12;0.52;;;0.32;;
61505;SDS011;47366;51.916;4.574;2023-04-24T12:06:38;3.05;;;0.55;;
61505;SDS011;47366;51.916;4.574;2023-04-24T12:09:03;0.52;;;0.30;;
61505;SDS011;47366;51.916;4.574;2023-04-24T12:11:29;2.22;;;0.60;;
61505;SDS011;47366;51.916;4.574;2023-04-24T12:13:55;0.75;;;0.28;;
61505;SDS011;47366;51.916;4.574;2023-04-24T12:16:20;1.70;;;0.40;;
61505;SDS011;47366;51.916;4.574;2023-04-24T12:18:45;0.13;;;0.13;;
61505;SDS011;47366;51.916;4.574;2023-04-24T12:21:23;2.35;;;0.55;;
61505;SDS011;47366;51.916;4.574;2023-04-24T12:23:54;2.80;;;0.70;;
61505;SDS011;47366;51.916;4.574;2023-04-24T12:26:20;2.72;;;0.55;;
61505;SDS011;47366;51.916;4.574;2023-04-24T12:28:47;1.10;;;0.40;;
61505;SDS011;47366;51.916;4.574;2023-04-24T12:31:14;1.02;;;0.35;;
61505;SDS011;47366;51.916;4.574;2023-04-24T12:33:40;0.22;;;0.22;;
61505;SDS011;47366;51.916;4.574;2023-04-24T12:36:05;1.20;;;0.68;;
61505;SDS011;47366;51.916;4.574;2023-04-24T12:38:31;0.60;;;0.30;;
61505;SDS011;47366;51.916;4.574;2023-04-24T12:41:14;3.25;;;0.77;;
61505;SDS011;47366;51.916;4.574;2023-04-24T12:43:50;4.63;;;0.82;;
61505;SDS011;47366;51.916;4.574;2023-04-24T12:46:16;5.30;;;0.57;;
61505;SDS011;47366;51.916;4.574;2023-04-24T12:48:41;4.35;;;0.65;;
61505;SDS011;47366;51.916;4.574;2023-04-24T12:51:07;0.70;;;0.20;;
61505;SDS011;47366;51.916;4.574;2023-04-24T12:53:32;3.22;;;0.75;;
61505;SDS011;47366;51.916;4.574;2023-04-24T12:55:57;2.75;;;0.80;;
61505;SDS011;47366;51.916;4.574;2023-04-24T12:58:23;0.65;;;0.20;;
61505;SDS011;47366;51.916;4.574;2023-04-24T13:00:48;1.27;;;0.55;;
61505;SDS011;47366;51.916;4.574;2023-04-24T13:03:14;0.63;;;0.30;;
61505;SDS011;47366;51.916;4.574;2023-04-24T13:05:40;3.42;;;0.77;;
61505;SDS011;47366;51.916;4.574;2023-04-24T13:08:05;3.00;;;0.70;;
61505;SDS011;47366;51.916;4.574;2023-04-24T13:10:31;0.52;;;0.20;;
61505;SDS011;47366;51.916;4.574;2023-04-24T13:12:56;2.55;;;0.80;;
61505;SDS011;47366;51.916;4.574;2023-04-24T13:15:22;1.40;;;0.40;;
61505;SDS011;47366;51.916;4.574;2023-04-24T13:17:47;1.05;;;0.70;;
61505;SDS011;47366;51.916;4.574;2023-04-24T13:20:13;1.88;;;0.70;;
61505;SDS011;47366;51.916;4.574;2023-04-24T13:22:38;4.35;;;0.90;;
61505;SDS011;47366;51.916;4.574;2023-04-24T13:25:04;0.60;;;0.50;;
61505;SDS011;47366;51.916;4.574;2023-04-24T13:27:31;3.55;;;1.20;;
61505;SDS011;47366;51.916;4.574;2023-04-24T13:29:56;1.75;;;0.90;;
61505;SDS011;47366;51.916;4.574;2023-04-24T13:32:21;0.40;;;0.30;;
61505;SDS011;47366;51.916;4.574;2023-04-24T13:34:47;2.83;;;0.90;;
61505;SDS011;47366;51.916;4.574;2023-04-24T13:37:12;1.27;;;0.50;;
61505;SDS011;47366;51.916;4.574;2023-04-24T13:39:37;1.92;;;0.40;;
61505;SDS011;47366;51.916;4.574;2023-04-24T13:42:03;3.05;;;1.08;;
61505;SDS011;47366;51.916;4.574;2023-04-24T13:44:28;1.20;;;0.60;;
61505;SDS011;47366;51.916;4.574;2023-04-24T13:46:54;1.92;;;0.60;;
61505;SDS011;47366;51.916;4.574;2023-04-24T13:49:21;5.18;;;0.88;;
61505;SDS011;47366;51.916;4.574;2023-04-24T13:51:49;2.45;;;1.05;;
61505;SDS011;47366;51.916;4.574;2023-04-24T13:54:15;0.95;;;0.60;;
61505;SDS011;47366;51.916;4.574;2023-04-24T13:56:41;4.00;;;1.02;;
61505;SDS011;47366;51.916;4.574;2023-04-24T13:59:06;0.85;;;0.40;;
61505;SDS011;47366;51.916;4.574;2023-04-24T14:01:32;2.88;;;0.85;;
61505;SDS011;47366;51.916;4.574;2023-04-24T14:03:57;1.35;;;0.63;;
61505;SDS011;47366;51.916;4.574;2023-04-24T14:06:22;1.55;;;0.82;;
61505;SDS011;47366;51.916;4.574;2023-04-24T14:08:48;2.15;;;0.70;;
61505;SDS011;47366;51.916;4.574;2023-04-24T14:11:15;2.42;;;0.93;;
61505;SDS011;47366;51.916;4.574;2023-04-24T14:13:41;2.75;;;1.13;;
61505;SDS011;47366;51.916;4.574;2023-04-24T14:16:07;1.35;;;0.80;;
61505;SDS011;47366;51.916;4.574;2023-04-24T14:18:33;1.27;;;0.70;;
61505;SDS011;47366;51.916;4.574;2023-04-24T14:20:58;4.22;;;0.90;;
61505;SDS011;47366;51.916;4.574;2023-04-24T14:23:26;3.97;;;0.75;;
61505;SDS011;47366;51.916;4.574;2023-04-24T14:25:51;1.95;;;0.75;;
61505;SDS011;47366;51.916;4.574;2023-04-24T14:28:20;1.38;;;0.57;;
61505;SDS011;47366;51.916;4.574;2023-04-24T14:30:47;1.85;;;0.85;;
61505;SDS011;47366;51.916;4.574;2023-04-24T14:33:12;5.88;;;1.10;;
61505;SDS011;47366;51.916;4.574;2023-04-24T14:35:38;4.43;;;0.70;;
61505;SDS011;47366;51.916;4.574;2023-04-24T14:38:05;6.00;;;1.38;;
61505;SDS011;47366;51.916;4.574;2023-04-24T14:40:30;2.28;;;0.77;;
61505;SDS011;47366;51.916;4.574;2023-04-24T14:42:57;1.23;;;0.73;;
61505;SDS011;47366;51.916;4.574;2023-04-24T14:45:23;4.35;;;1.15;;
61505;SDS011;47366;51.916;4.574;2023-04-24T14:47:49;1.55;;;0.70;;
61505;SDS011;47366;51.916;4.574;2023-04-24T14:50:14;1.58;;;0.73;;
61505;SDS011;47366;51.916;4.574;2023-04-24T14:52:39;3.47;;;0.88;;
61505;SDS011;47366;51.916;4.574;2023-04-24T14:55:05;2.30;;;1.00;;
61505;SDS011;47366;51.916;4.574;2023-04-24T14:57:31;4.07;;;0.82;;
61505;SDS011;47366;51.916;4.574;2023-04-24T14:59:57;2.28;;;0.85;;